Time;durP1;ratioP1;P1;durP2;ratioP2;P2;SDS_P1;SDS_P2;PMS_P1;PMS_P2;Temp;Humidity;BMP_temperature;BMP_pressure;BME280_temperature;BME280_humidity;BME280_pressure;Samples;Min_cycle;Max_cycle;Signal;HPM_P1;HPM_P2
2021/09/29 00:00:23;;;;;;;16.43;14.87;;;15.60;99.90;;;;;;6139338;23;20438;-89
2021/09/29 00:02:52;;;;;;;18.10;15.87;;;15.60;99.90;;;;;;6136703;23;20393;-89
2021/09/29 00:05:21;;;;;;;18.10;14.20;;;15.50;99.90;;;;;;6126149;23;20419;-89
2021/09/29 00:07:59;;;;;;;16.00;14.13;;;15.50;99.90;;;;;;6131397;23;20436;-89
2021/09/29 00:10:28;;;;;;;15.23;13.50;;;15.50;99.90;;;;;;6153737;23;20418;-89
2021/09/29 00:12:54;;;;;;;15.53;13.90;;;15.50;99.90;;;;;;6154364;23;20388;-89
2021/09/29 00:15:23;;;;;;;20.40;14.90;;;15.50;99.90;;;;;;6152709;23;20396;-89
2021/09/29 00:17:50;;;;;;;17.20;13.50;;;15.50;99.90;;;;;;6135650;23;20442;-89
2021/09/29 00:20:18;;;;;;;14.40;12.67;;;15.40;99.90;;;;;;6127447;23;20423;-89
2021/09/29 00:22:45;;;;;;;16.30;14.60;;;15.40;99.90;;;;;;6127903;23;20408;-89
2021/09/29 00:25:15;;;;;;;14.63;12.37;;;15.40;99.90;;;;;;6130913;23;20407;-89
2021/09/29 00:27:43;;;;;;;15.80;13.87;;;15.40;99.90;;;;;;6126486;23;20914;-89
2021/09/29 00:30:27;;;;;;;15.13;13.00;;;15.40;99.90;;;;;;6148044;23;20427;-89
2021/09/29 00:32:56;;;;;;;13.93;12.40;;;15.40;99.90;;;;;;6150438;23;20403;-89
2021/09/29 00:35:27;;;;;;;14.00;12.37;;;15.40;99.90;;;;;;6151415;23;20418;-89
2021/09/29 00:37:56;;;;;;;13.40;12.10;;;15.40;99.90;;;;;;6145079;23;20448;-89
2021/09/29 00:40:32;;;;;;;14.77;13.30;;;15.40;99.90;;;;;;6129046;23;20462;-89
2021/09/29 00:43:07;;;;;;;16.07;11.67;;;15.30;99.90;;;;;;6128607;23;20390;-89
2021/09/29 00:45:34;;;;;;;17.30;13.27;;;15.30;99.90;;;;;;6128650;23;20429;-89
2021/09/29 00:48:11;;;;;;;13.90;12.47;;;15.30;99.90;;;;;;6128390;23;20518;-89
2021/09/29 00:50:37;;;;;;;14.60;13.27;;;15.20;99.90;;;;;;6127615;23;20427;-90
2021/09/29 00:53:05;;;;;;;16.50;13.13;;;15.20;99.90;;;;;;6127289;23;20415;-88
2021/09/29 00:55:32;;;;;;;12.30;10.80;;;15.20;99.90;;;;;;6126275;23;20399;-89
2021/09/29 00:57:59;;;;;;;13.57;12.23;;;15.20;99.90;;;;;;6126172;23;20922;-89
2021/09/29 01:00:26;;;;;;;14.30;12.57;;;15.20;99.90;;;;;;6126615;23;20415;-88
2021/09/29 01:02:53;;;;;;;13.23;12.00;;;15.20;99.90;;;;;;6126870;23;20434;-88
2021/09/29 01:05:21;;;;;;;14.30;12.80;;;15.10;99.90;;;;;;6126637;23;20407;-88
2021/09/29 01:07:55;;;;;;;16.20;12.50;;;15.10;99.90;;;;;;6127192;23;21050;-89
2021/09/29 01:10:30;;;;;;;14.10;12.50;;;15.10;99.90;;;;;;6104713;23;20447;-89
2021/09/29 01:13:06;;;;;;;14.17;12.77;;;15.00;99.90;;;;;;6097285;23;20372;-89
2021/09/29 01:15:39;;;;;;;14.10;12.70;;;15.10;99.90;;;;;;6098019;23;20424;-89
2021/09/29 01:18:10;;;;;;;15.77;12.47;;;15.00;99.90;;;;;;6097314;23;20434;-90
2021/09/29 01:20:44;;;;;;;13.23;11.43;;;15.00;99.90;;;;;;6097381;23;20385;-89
2021/09/29 01:23:54;;;;;;;13.57;12.37;;;15.00;99.90;;;;;;6098049;23;20864;-89
2021/09/29 01:26:26;;;;;;;12.90;11.57;;;14.90;99.90;;;;;;6095444;23;20416;-89
2021/09/29 01:28:57;;;;;;;14.50;13.00;;;14.90;99.90;;;;;;6099611;23;20432;-89
2021/09/29 01:31:25;;;;;;;14.40;13.00;;;14.90;99.90;;;;;;6097855;23;20939;-89
2021/09/29 01:33:53;;;;;;;12.60;11.40;;;14.80;99.90;;;;;;6099373;23;20421;-89
2021/09/29 01:36:22;;;;;;;13.43;12.23;;;14.80;99.90;;;;;;6111531;23;20412;-90
2021/09/29 01:38:54;;;;;;;13.30;11.60;;;14.80;99.90;;;;;;6115118;23;20496;-90
2021/09/29 01:41:23;;;;;;;12.60;11.33;;;14.90;99.90;;;;;;6106964;23;20405;-89
2021/09/29 01:43:50;;;;;;;13.60;12.00;;;14.90;99.90;;;;;;6099114;23;20419;-90
2021/09/29 01:46:16;;;;;;;14.47;12.87;;;14.90;99.90;;;;;;6097933;23;20405;-90
2021/09/29 01:48:50;;;;;;;14.03;12.63;;;14.90;99.90;;;;;;6099493;23;20503;-89
2021/09/29 01:51:18;;;;;;;15.70;12.90;;;14.80;99.90;;;;;;6121656;23;20428;-88
2021/09/29 01:53:47;;;;;;;11.40;10.30;;;14.80;99.90;;;;;;6123552;23;20409;-88
2021/09/29 01:56:14;;;;;;;13.97;12.07;;;14.80;99.90;;;;;;6116106;23;20421;-89
2021/09/29 01:58:42;;;;;;;13.40;11.60;;;14.80;99.90;;;;;;6115278;23;20433;-90
2021/09/29 02:01:09;;;;;;;14.77;13.20;;;14.80;99.90;;;;;;6123978;23;20416;-88
2021/09/29 02:03:36;;;;;;;13.67;12.40;;;14.80;99.90;;;;;;6122809;23;20397;-87
2021/09/29 02:06:03;;;;;;;13.97;12.57;;;14.80;99.90;;;;;;6123730;23;20396;-87
2021/09/29 02:08:30;;;;;;;12.80;11.10;;;14.80;99.90;;;;;;6125570;23;20435;-90
2021/09/29 02:10:56;;;;;;;12.90;11.70;;;14.80;99.90;;;;;;6128219;23;20426;-90
2021/09/29 02:13:24;;;;;;;13.70;11.43;;;14.90;99.90;;;;;;6127969;23;20412;-90
2021/09/29 02:15:52;;;;;;;12.83;11.70;;;14.90;99.90;;;;;;6138030;23;20412;-90
2021/09/29 02:18:19;;;;;;;14.60;11.40;;;14.90;99.90;;;;;;6152370;23;20412;-90
2021/09/29 02:20:46;;;;;;;13.17;11.73;;;14.90;99.90;;;;;;6136946;23;20403;-89
2021/09/29 02:23:13;;;;;;;16.70;12.20;;;15.00;99.90;;;;;;6126509;23;20878;-90
2021/09/29 02:25:40;;;;;;;13.73;12.30;;;15.00;99.90;;;;;;6126686;23;20601;-90
2021/09/29 02:28:06;;;;;;;15.40;13.30;;;15.00;99.90;;;;;;6127199;23;20432;-89
2021/09/29 02:30:33;;;;;;;12.80;11.50;;;14.90;99.90;;;;;;6138247;23;20463;-89
2021/09/29 02:33:01;;;;;;;13.20;11.80;;;14.80;99.90;;;;;;6154407;23;20388;-89
2021/09/29 02:35:28;;;;;;;13.13;11.83;;;14.80;99.90;;;;;;6154957;23;20394;-89
2021/09/29 02:37:55;;;;;;;14.40;12.73;;;14.80;99.90;;;;;;6154514;23;20446;-86
2021/09/29 02:40:22;;;;;;;15.93;11.77;;;14.70;99.90;;;;;;6140533;23;20415;-86
2021/09/29 02:42:49;;;;;;;15.03;12.73;;;14.70;99.90;;;;;;6130332;23;20408;-86
2021/09/29 02:45:16;;;;;;;14.87;13.17;;;14.80;99.90;;;;;;6128648;23;20394;-86
2021/09/29 02:47:43;;;;;;;15.30;12.83;;;14.90;99.90;;;;;;6133353;23;20427;-86
2021/09/29 02:50:11;;;;;;;13.90;12.50;;;15.00;99.90;;;;;;6137557;23;20502;-88
2021/09/29 02:52:38;;;;;;;14.70;12.20;;;15.00;99.90;;;;;;6129848;23;20415;-88
2021/09/29 02:55:06;;;;;;;14.60;13.03;;;15.00;99.90;;;;;;6132058;23;20402;-88
2021/09/29 02:57:54;;;;;;;13.30;11.90;;;15.10;99.90;;;;;;6133369;23;20773;-92
2021/09/29 03:03:51;;;;;;;12.17;10.60;;;15.20;99.90;;;;;;6152069;23;20419;-92
2021/09/29 03:06:37;;;;;;;13.40;11.87;;;15.20;99.90;;;;;;6146238;23;20450;-92
2021/09/29 03:09:31;;;;;;;14.17;12.77;;;15.20;99.90;;;;;;6139840;23;20870;-91
2021/09/29 03:55:40;;;;;;;9.00;8.10;;;14.80;99.90;;;;;;6129233;23;20487;-92
2021/09/29 03:58:47;;;;;;;12.43;9.70;;;14.80;99.90;;;;;;6131012;23;20407;-92
2021/09/29 04:01:52;;;;;;;14.67;9.57;;;14.70;99.90;;;;;;6131001;23;20427;-92
2021/09/29 04:05:11;;;;;;;;;;;;;;;;;;;;;
2021/09/29 04:08:10;;;;;;;8.90;7.57;;;14.90;99.90;;;;;;6117897;23;20487;-91
2021/09/29 04:30:46;;;;;;;10.13;9.20;;;15.00;99.90;;;;;;6072096;23;20478;-93
2021/09/29 04:46:57;;;;;;;6.97;6.33;;;14.80;99.90;;;;;;6111284;23;20420;-92
2021/09/29 05:41:52;;;;;;;5.83;5.03;;;14.60;99.90;;;;;;6090551;23;20468;-89
2021/09/29 06:21:55;;;;;;;5.53;4.33;;;14.80;99.90;;;;;;5960434;24;20452;-92
2021/09/29 07:47:50;;;;;;;4.30;2.40;;;16.80;99.90;;;;;;6054664;23;20431;-88
2021/09/29 07:50:17;;;;;;;2.60;2.20;;;17.00;99.90;;;;;;6125265;23;20977;-86
2021/09/29 07:52:44;;;;;;;5.07;2.00;;;17.20;99.90;;;;;;6126787;23;20422;-87
2021/09/29 07:55:12;;;;;;;2.10;1.70;;;17.30;99.90;;;;;;6135559;23;20392;-85
2021/09/29 07:57:40;;;;;;;3.60;2.40;;;17.40;99.00;;;;;;6130206;23;20409;-86
2021/09/29 08:00:08;;;;;;;1.83;1.50;;;17.50;99.00;;;;;;6126343;23;20408;-86
2021/09/29 08:02:36;;;;;;;7.90;2.60;;;17.40;98.30;;;;;;6128490;23;20408;-86
2021/09/29 08:05:05;;;;;;;2.33;1.50;;;17.90;98.20;;;;;;6130367;23;20412;-86
2021/09/29 08:07:32;;;;;;;6.00;2.50;;;18.50;97.00;;;;;;6133640;23;20412;-86
2021/09/29 08:09:59;;;;;;;1.97;1.80;;;18.50;96.30;;;;;;6135477;23;20403;-87
2021/09/29 08:12:26;;;;;;;5.23;2.20;;;18.20;96.40;;;;;;6149556;23;20459;-85
2021/09/29 08:14:54;;;;;;;3.57;2.00;;;18.10;97.20;;;;;;6152736;23;20412;-92
2021/09/29 08:17:21;;;;;;;1.73;1.43;;;17.80;96.80;;;;;;6152746;23;20420;-93
2021/09/29 08:19:48;;;;;;;3.70;1.63;;;17.70;97.10;;;;;;6134273;23;20468;-92
2021/09/29 08:22:17;;;;;;;2.87;1.60;;;17.80;96.90;;;;;;6130388;23;20467;-92
2021/09/29 08:24:55;;;;;;;2.90;2.63;;;17.90;96.50;;;;;;6128711;23;20420;-93
2021/09/29 08:27:28;;;;;;;6.73;1.70;;;18.00;96.30;;;;;;6128978;23;20411;-92
2021/09/29 08:30:16;;;;;;;2.50;1.57;;;18.00;96.20;;;;;;6129753;23;20446;-93
2021/09/29 08:32:47;;;;;;;2.13;1.37;;;18.10;96.40;;;;;;6128702;23;20724;-90
2021/09/29 08:35:25;;;;;;;5.80;1.63;;;18.20;96.40;;;;;;6129250;23;20913;-92
2021/09/29 08:37:59;;;;;;;4.57;1.70;;;18.20;96.00;;;;;;6130163;23;20939;-91
2021/09/29 08:40:29;;;;;;;3.23;1.70;;;18.20;95.40;;;;;;6129218;23;20930;-91
2021/09/29 08:43:05;;;;;;;2.10;1.70;;;18.40;95.20;;;;;;6129304;23;20414;-92
2021/09/29 08:45:37;;;;;;;3.20;1.90;;;18.70;95.00;;;;;;6128969;23;20396;-92
2021/09/29 08:48:11;;;;;;;3.63;1.60;;;19.30;94.10;;;;;;6128088;23;20422;-92
2021/09/29 08:51:10;;;;;;;3.77;1.80;;;20.30;92.60;;;;;;6129502;23;20447;-93
2021/09/29 09:16:08;;;;;;;3.73;1.50;;;24.70;68.80;;;;;;6136442;23;20403;-91
2021/09/29 09:18:36;;;;;;;3.53;1.13;;;25.30;67.90;;;;;;6134282;23;20395;-92
2021/09/29 09:21:15;;;;;;;3.00;1.00;;;25.10;65.90;;;;;;6145327;23;20450;-88
2021/09/29 09:23:43;;;;;;;2.50;1.20;;;24.10;67.40;;;;;;6154117;23;20427;-90
2021/09/29 09:26:22;;;;;;;4.20;1.90;;;24.00;68.90;;;;;;6153413;23;20398;-91
2021/09/29 09:29:04;;;;;;;4.27;1.87;;;23.20;70.00;;;;;;6152997;23;20395;-89
2021/09/29 09:31:31;;;;;;;2.10;1.17;;;22.10;73.00;;;;;;6147190;23;20452;-90
2021/09/29 09:34:01;;;;;;;5.17;1.87;;;20.80;76.70;;;;;;6143550;23;20408;-91
2021/09/29 09:36:32;;;;;;;2.83;2.10;;;21.40;77.80;;;;;;6133497;23;20396;-90
2021/09/29 09:39:00;;;;;;;2.33;1.20;;;22.30;74.40;;;;;;6136614;23;20412;-91
2021/09/29 09:41:30;;;;;;;3.43;1.30;;;23.60;72.60;;;;;;6145439;23;21348;-91
2021/09/29 09:44:01;;;;;;;2.60;1.40;;;24.40;70.00;;;;;;6129038;23;20498;-90
2021/09/29 09:46:29;;;;;;;2.07;1.40;;;23.50;69.40;;;;;;6130961;23;20899;-90
2021/09/29 09:49:00;;;;;;;3.80;1.33;;;21.80;72.30;;;;;;6129145;23;20424;-91
2021/09/29 09:51:27;;;;;;;4.13;1.60;;;21.10;75.60;;;;;;6133182;23;20451;-92
2021/09/29 09:53:56;;;;;;;5.80;1.30;;;20.90;78.60;;;;;;6133573;23;20416;-90
2021/09/29 09:56:31;;;;;;;3.90;1.20;;;20.90;79.20;;;;;;6141456;23;20466;-91
2021/09/29 09:59:08;;;;;;;4.00;1.60;;;20.70;79.10;;;;;;6152792;23;20434;-90
2021/09/29 10:01:35;;;;;;;6.23;2.07;;;20.60;79.60;;;;;;6146993;23;20486;-91
2021/09/29 10:04:09;;;;;;;1.87;1.47;;;20.20;79.80;;;;;;6153369;23;20392;-90
2021/09/29 10:06:36;;;;;;;3.17;1.10;;;20.00;80.70;;;;;;6137242;23;20391;-92
2021/09/29 10:09:09;;;;;;;2.90;1.60;;;19.80;80.80;;;;;;6129261;23;20399;-91
2021/09/29 10:11:49;;;;;;;1.80;1.43;;;19.60;82.00;;;;;;6134478;23;20506;-91
2021/09/29 10:14:29;;;;;;;3.20;1.50;;;19.80;82.70;;;;;;6128642;23;20409;-91
2021/09/29 10:23:11;;;;;;;2.60;1.33;;;21.90;75.60;;;;;;6135711;23;20377;-91
2021/09/29 10:28:50;;;;;;;5.73;1.37;;;24.50;68.40;;;;;;6039285;23;20420;-89
2021/09/29 10:31:37;;;;;;;3.13;1.20;;;25.80;63.70;;;;;;6105897;23;20506;-91
2021/09/29 10:34:37;;;;;;;2.70;0.97;;;25.70;60.70;;;;;;6134778;23;20411;-91
2021/09/29 10:37:38;;;;;;;2.30;1.20;;;25.80;58.90;;;;;;6133918;23;20418;-92
2021/09/29 10:40:51;;;;;;;4.80;1.40;;;24.80;59.50;;;;;;6130192;23;20420;-92
2021/09/29 10:43:30;;;;;;;1.20;1.00;;;24.00;60.40;;;;;;6129869;23;20801;-92
2021/09/29 10:46:17;;;;;;;3.70;1.30;;;22.40;70.30;;;;;;6131054;23;20416;-92
2021/09/29 10:49:24;;;;;;;2.00;0.90;;;21.40;68.00;;;;;;6129106;23;20420;-92
2021/09/29 10:52:47;;;;;;;4.30;1.20;;;20.80;72.60;;;;;;6129158;23;20502;-92
2021/09/29 11:32:08;;;;;;;3.40;1.33;;;24.90;69.60;;;;;;6131297;23;20477;-92
2021/09/29 11:34:54;;;;;;;3.40;1.10;;;24.90;62.80;;;;;;6132201;23;20422;-92
2021/09/29 12:12:53;;;;;;;4.37;1.23;;;22.00;70.30;;;;;;6102821;23;20935;-93
2021/09/29 12:29:30;;;;;;;1.93;1.10;;;26.20;55.50;;;;;;6106406;23;20450;-81
2021/09/29 12:32:10;;;;;;;2.67;1.07;;;26.40;55.10;;;;;;6138563;23;20447;-80
2021/09/29 12:34:49;;;;;;;4.53;1.60;;;27.30;54.30;;;;;;6142819;23;20426;-81
2021/09/29 12:37:16;;;;;;;2.50;0.97;;;27.90;53.30;;;;;;6150620;23;20446;-80
2021/09/29 12:39:43;;;;;;;3.03;0.90;;;27.40;52.50;;;;;;6149866;23;20419;-80
2021/09/29 12:42:11;;;;;;;3.40;0.90;;;27.30;53.80;;;;;;6144775;23;20424;-81
2021/09/29 12:44:52;;;;;;;2.00;1.00;;;26.50;53.30;;;;;;6137320;23;20404;-80
2021/09/29 12:47:26;;;;;;;1.93;0.90;;;26.80;54.20;;;;;;6139744;23;20418;-80
2021/09/29 12:49:55;;;;;;;3.00;0.93;;;26.10;54.40;;;;;;6136567;23;20396;-80
2021/09/29 12:52:31;;;;;;;3.87;1.37;;;24.80;55.80;;;;;;6138639;23;20536;-80
2021/09/29 12:54:59;;;;;;;6.73;1.33;;;23.50;58.30;;;;;;6141185;23;20761;-80
2021/09/29 12:57:28;;;;;;;4.80;1.00;;;22.90;60.40;;;;;;6140460;23;20461;-81
2021/09/29 12:59:57;;;;;;;1.50;0.80;;;22.70;62.20;;;;;;6138864;23;20429;-81
2021/09/29 13:02:24;;;;;;;2.60;1.10;;;22.50;63.20;;;;;;6139533;23;20461;-80
2021/09/29 13:04:51;;;;;;;5.47;1.10;;;22.60;64.10;;;;;;6144968;23;20405;-80
2021/09/29 13:07:18;;;;;;;2.17;1.10;;;22.00;64.40;;;;;;6144220;23;20412;-81
2021/09/29 13:09:44;;;;;;;1.53;1.00;;;22.00;66.00;;;;;;6139402;23;20408;-80
2021/09/29 13:12:11;;;;;;;3.73;1.50;;;22.30;65.80;;;;;;6144301;23;20484;-80
2021/09/29 13:14:38;;;;;;;4.33;1.60;;;22.60;64.90;;;;;;6144653;23;20397;-81
2021/09/29 13:17:07;;;;;;;2.43;1.60;;;22.80;64.80;;;;;;6143308;23;20405;-81
2021/09/29 13:19:40;;;;;;;4.30;1.33;;;22.70;65.10;;;;;;6140192;23;20440;-81
2021/09/29 13:22:15;;;;;;;3.50;1.97;;;22.70;65.40;;;;;;6141097;23;20514;-81
2021/09/29 13:24:55;;;;;;;7.17;1.50;;;23.00;65.40;;;;;;6143213;23;20401;-80
2021/09/29 13:38:20;;;;;;;2.97;1.17;;;22.20;67.60;;;;;;6140834;23;20409;-81
2021/09/29 13:40:47;;;;;;;2.67;1.10;;;22.00;68.80;;;;;;6139869;23;20469;-81
2021/09/29 13:43:17;;;;;;;4.50;1.30;;;21.50;70.50;;;;;;6138468;23;20413;-92
2021/09/29 13:46:08;;;;;;;2.80;1.30;;;20.80;77.90;;;;;;6135985;23;20495;-90
2021/09/29 13:48:53;;;;;;;4.10;1.73;;;20.30;83.30;;;;;;6128911;23;20443;-92
2021/09/29 13:51:28;;;;;;;2.87;1.30;;;19.70;91.90;;;;;;6132014;23;20442;-92
2021/09/29 13:56:57;;;;;;;3.37;1.80;;;19.20;95.70;;;;;;6143027;23;20401;-93
2021/09/29 13:59:46;;;;;;;5.27;2.80;;;19.30;97.40;;;;;;6147351;23;20442;-92
2021/09/29 14:30:52;;;;;;;1.07;0.90;;;19.10;93.30;;;;;;6128722;23;20486;-91
2021/09/29 14:33:29;;;;;;;1.33;0.80;;;18.80;93.90;;;;;;6128192;23;20522;-91
2021/09/29 14:36:07;;;;;;;5.33;2.57;;;18.60;93.80;;;;;;6129100;23;20444;-91
2021/09/29 14:38:38;;;;;;;2.93;2.17;;;18.40;93.10;;;;;;6128820;23;20419;-91
2021/09/29 14:41:07;;;;;;;1.87;1.50;;;18.00;94.50;;;;;;6130982;23;20439;-90
2021/09/29 14:43:49;;;;;;;1.57;0.90;;;17.70;96.40;;;;;;6136457;23;20416;-90
2021/09/29 14:46:23;;;;;;;1.77;0.80;;;17.50;96.90;;;;;;6143573;23;20412;-91
2021/09/29 14:48:52;;;;;;;1.43;0.93;;;17.30;98.20;;;;;;6142706;23;20416;-91
2021/09/29 14:51:21;;;;;;;2.87;2.30;;;17.10;99.90;;;;;;6128853;23;20435;-91
2021/09/29 14:53:50;;;;;;;1.90;1.07;;;17.00;99.90;;;;;;6130317;23;20467;-91
2021/09/29 14:56:25;;;;;;;1.67;1.17;;;16.90;99.90;;;;;;6132296;23;20429;-91
2021/09/29 14:58:57;;;;;;;1.37;0.90;;;16.90;99.90;;;;;;6135534;23;20415;-91
2021/09/29 15:01:33;;;;;;;3.03;2.00;;;16.90;99.90;;;;;;6130059;23;20439;-91
2021/09/29 15:04:04;;;;;;;1.63;0.70;;;16.80;99.90;;;;;;6129945;23;20416;-91
2021/09/29 15:06:31;;;;;;;1.53;0.90;;;16.80;99.90;;;;;;6129685;23;20414;-90
2021/09/29 15:09:22;;;;;;;1.80;1.23;;;16.80;99.90;;;;;;6128676;23;20419;-90
2021/09/29 15:11:56;;;;;;;3.50;1.33;;;16.80;99.90;;;;;;6144328;23;20439;-91
2021/09/29 15:14:44;;;;;;;1.60;1.03;;;16.80;99.90;;;;;;6143441;23;20406;-91
2021/09/29 15:17:29;;;;;;;2.00;1.10;;;16.80;99.90;;;;;;6144149;23;20435;-90
2021/09/29 15:20:01;;;;;;;2.37;1.47;;;16.80;99.90;;;;;;6139392;23;20544;-91
2021/09/29 15:25:51;;;;;;;0.83;0.80;;;16.80;99.90;;;;;;6062581;23;20425;-91
2021/09/29 15:31:27;;;;;;;2.90;2.03;;;16.80;99.90;;;;;;6069641;23;20964;-91
2021/09/29 15:47:56;;;;;;;0.97;0.80;;;16.80;98.20;;;;;;6138319;23;20391;-90
2021/09/29 15:50:38;;;;;;;1.80;0.73;;;16.80;97.80;;;;;;6141366;23;20435;-91
2021/09/29 15:53:31;;;;;;;2.10;1.60;;;16.80;97.90;;;;;;6129334;23;20439;-90
2021/09/29 15:56:02;;;;;;;2.83;1.70;;;16.70;96.90;;;;;;6130782;23;20471;-90
2021/09/29 16:01:27;;;;;;;1.50;0.77;;;16.70;96.70;;;;;;6139648;23;20420;-91
2021/09/29 16:04:19;;;;;;;3.40;1.53;;;16.80;96.70;;;;;;6143837;23;20400;-90
2021/09/29 16:07:05;;;;;;;11.13;6.50;;;16.90;96.80;;;;;;6132227;23;20466;-91
2021/09/29 16:30:09;;;;;;;3.43;1.63;;;16.40;97.30;;;;;;6130514;23;20402;-91
2021/09/29 16:33:46;;;;;;;4.13;2.93;;;16.40;97.80;;;;;;6131089;23;20447;-91
2021/09/29 16:39:04;;;;;;;4.17;2.77;;;16.50;97.30;;;;;;6124760;23;20403;-90
2021/09/29 16:44:34;;;;;;;1.77;0.90;;;16.40;97.20;;;;;;6131837;23;20728;-90
2021/09/29 16:47:04;;;;;;;2.03;0.87;;;16.40;97.20;;;;;;6133844;23;20413;-91
2021/09/29 16:49:31;;;;;;;1.30;0.90;;;16.30;97.30;;;;;;6152938;23;20406;-91
2021/09/29 16:52:07;;;;;;;3.73;1.57;;;16.30;97.20;;;;;;6151857;23;20432;-90
2021/09/29 16:54:34;;;;;;;3.57;2.03;;;16.20;97.50;;;;;;6134883;23;20417;-90
2021/09/29 16:57:12;;;;;;;5.83;3.37;;;16.20;97.00;;;;;;6132973;23;21098;-91
2021/09/29 16:59:50;;;;;;;4.23;2.73;;;16.20;97.30;;;;;;6137715;23;20426;-91
2021/09/29 17:02:18;;;;;;;3.43;2.43;;;16.20;97.00;;;;;;6141924;23;20414;-91
2021/09/29 17:04:48;;;;;;;5.37;1.50;;;16.10;96.60;;;;;;6134043;23;20467;-91
2021/09/29 17:07:20;;;;;;;6.17;4.00;;;16.10;96.90;;;;;;6133163;23;20427;-91
2021/09/29 17:09:47;;;;;;;7.07;5.27;;;16.10;97.10;;;;;;6131811;23;20434;-90
2021/09/29 17:12:15;;;;;;;3.83;2.73;;;16.10;97.20;;;;;;6132266;23;20443;-91
2021/09/29 17:15:05;;;;;;;2.17;1.67;;;16.10;97.50;;;;;;6131888;23;20423;-90
2021/09/29 17:17:35;;;;;;;3.00;1.97;;;16.00;97.50;;;;;;6132958;23;20426;-90
2021/09/29 17:22:58;;;;;;;4.77;2.73;;;16.00;97.50;;;;;;6140723;23;20402;-91
2021/09/29 17:25:26;;;;;;;4.30;3.30;;;15.90;97.40;;;;;;6152459;23;20525;-90
2021/09/29 17:27:54;;;;;;;1.70;1.47;;;16.00;97.70;;;;;;6146698;23;20929;-91
2021/09/29 17:30:25;;;;;;;7.27;4.40;;;15.90;97.60;;;;;;6138174;23;20474;-91
2021/09/29 17:35:49;;;;;;;2.70;2.30;;;15.90;97.30;;;;;;6088543;23;20419;-91
2021/09/29 17:38:32;;;;;;;2.03;1.50;;;15.80;97.30;;;;;;6149534;23;20427;-93
2021/09/29 17:52:37;;;;;;;5.33;3.40;;;15.70;97.50;;;;;;6153812;23;20511;-91
2021/09/29 17:55:08;;;;;;;4.13;2.83;;;15.70;97.50;;;;;;6152833;23;20459;-90
2021/09/29 17:57:36;;;;;;;2.20;1.70;;;15.60;97.00;;;;;;6153647;23;20408;-91
2021/09/29 18:00:05;;;;;;;5.57;2.80;;;15.60;97.40;;;;;;6153834;23;20412;-92
2021/09/29 18:02:36;;;;;;;2.10;1.30;;;15.60;97.20;;;;;;6154134;23;20420;-90
2021/09/29 18:05:06;;;;;;;3.43;1.70;;;15.60;97.20;;;;;;6153989;23;20486;-92
2021/09/29 18:08:22;;;;;;;6.13;1.20;;;15.50;97.30;;;;;;6154550;23;20419;-91
2021/09/29 18:10:50;;;;;;;3.57;2.00;;;15.60;97.20;;;;;;6149065;23;20447;-91
2021/09/29 18:13:19;;;;;;;3.67;1.93;;;15.50;97.30;;;;;;6154188;23;20463;-92
2021/09/29 18:15:46;;;;;;;3.23;1.10;;;15.50;97.50;;;;;;6154087;23;20430;-92
2021/09/29 18:18:13;;;;;;;2.03;0.90;;;15.40;97.40;;;;;;6153823;23;20485;-93
2021/09/29 18:23:14;;;;;;;2.90;1.50;;;15.40;97.60;;;;;;6153312;23;20455;-93
2021/09/29 18:31:38;;;;;;;1.50;1.20;;;15.40;97.90;;;;;;6106922;23;20478;-92
2021/09/29 18:34:07;;;;;;;3.50;2.07;;;15.40;98.10;;;;;;6134397;23;20474;-92
2021/09/29 18:36:41;;;;;;;1.90;1.30;;;15.30;98.70;;;;;;6154409;23;20459;-91
2021/09/29 18:39:09;;;;;;;2.77;1.57;;;15.20;99.10;;;;;;6153702;23;20473;-91
2021/09/29 18:41:38;;;;;;;2.30;1.40;;;15.10;99.20;;;;;;6150540;23;20427;-91
2021/09/29 18:44:07;;;;;;;1.97;1.77;;;15.10;99.40;;;;;;6152659;23;20406;-91
2021/09/29 18:46:37;;;;;;;5.23;3.67;;;15.10;99.80;;;;;;6153527;23;20402;-94
2021/09/29 18:49:08;;;;;;;10.03;5.17;;;15.10;99.90;;;;;;6153965;23;20419;-92
2021/09/29 18:51:37;;;;;;;8.20;4.43;;;15.10;99.90;;;;;;6154046;23;20419;-91
2021/09/29 18:54:08;;;;;;;7.20;3.37;;;15.00;99.90;;;;;;6154299;23;20419;-90
2021/09/29 19:07:44;;;;;;;2.83;0.90;;;14.30;99.90;;;;;;6154236;23;20375;-87
2021/09/29 19:10:14;;;;;;;1.70;1.00;;;14.20;99.90;;;;;;6153955;23;20392;-90
2021/09/29 19:12:43;;;;;;;1.63;0.90;;;14.20;99.90;;;;;;6153925;23;20408;-89
2021/09/29 19:15:11;;;;;;;3.57;1.73;;;14.10;99.90;;;;;;6154018;23;20396;-91
2021/09/29 19:17:42;;;;;;;1.70;0.83;;;14.10;99.90;;;;;;6154093;23;20407;-88
2021/09/29 19:20:10;;;;;;;2.00;1.30;;;14.10;99.90;;;;;;6153782;23;20389;-88
2021/09/29 19:22:37;;;;;;;1.50;0.97;;;14.00;99.90;;;;;;6153436;23;20413;-87
2021/09/29 19:25:12;;;;;;;2.17;1.03;;;14.00;99.90;;;;;;6152502;23;20455;-91
2021/09/29 19:27:43;;;;;;;2.37;1.07;;;14.00;99.90;;;;;;6149075;23;20475;-83
2021/09/29 19:30:11;;;;;;;2.97;1.07;;;14.00;99.90;;;;;;6143639;23;20402;-82
2021/09/29 19:32:45;;;;;;;1.10;0.90;;;13.90;99.90;;;;;;6138375;23;20379;-82
2021/09/29 19:35:11;;;;;;;2.10;1.13;;;13.80;99.90;;;;;;6145067;23;20494;-83
2021/09/29 19:37:38;;;;;;;1.50;1.03;;;13.80;99.90;;;;;;6143251;23;20406;-82
2021/09/29 19:40:06;;;;;;;2.20;1.10;;;13.70;99.90;;;;;;6134746;23;20406;-81
2021/09/29 19:42:33;;;;;;;1.90;1.20;;;13.60;99.90;;;;;;6135381;23;20403;-80
2021/09/29 19:45:03;;;;;;;4.37;1.73;;;13.60;99.90;;;;;;6135569;23;20404;-80
2021/09/29 19:47:36;;;;;;;2.20;1.17;;;13.50;99.90;;;;;;6135177;23;20404;-81
2021/09/29 19:50:16;;;;;;;3.67;1.40;;;13.50;99.90;;;;;;6132176;23;20413;-81
2021/09/29 20:09:08;;;;;;;4.43;1.10;;;13.30;99.90;;;;;;6127544;23;20379;-80
2021/09/29 20:11:36;;;;;;;1.77;1.00;;;13.30;99.90;;;;;;6127935;23;20476;-81
2021/09/29 20:14:03;;;;;;;1.50;1.07;;;13.40;99.90;;;;;;6127655;23;20445;-80
2021/09/29 20:16:30;;;;;;;3.03;1.40;;;13.40;99.90;;;;;;6127409;23;20424;-81
2021/09/29 20:18:58;;;;;;;2.80;1.40;;;13.40;99.90;;;;;;6126741;23;20443;-81
2021/09/29 20:21:27;;;;;;;1.57;0.80;;;13.40;99.90;;;;;;6127794;23;20526;-82
2021/09/29 20:23:59;;;;;;;7.13;3.80;;;13.30;99.90;;;;;;6130519;23;20409;-90
2021/09/29 20:26:28;;;;;;;2.80;1.40;;;13.30;99.90;;;;;;6150935;23;20400;-89
2021/09/29 20:29:03;;;;;;;2.03;1.17;;;13.40;99.90;;;;;;6146394;23;20716;-91
2021/09/29 20:31:36;;;;;;;3.10;1.47;;;13.40;99.90;;;;;;6150395;23;20424;-90
2021/09/29 20:34:27;;;;;;;2.80;1.63;;;13.30;99.90;;;;;;6151285;23;20433;-89
2021/09/29 20:45:13;;;;;;;5.73;2.40;;;13.50;99.90;;;;;;6148362;23;20453;-90
2021/09/29 20:47:49;;;;;;;2.27;1.40;;;13.50;99.90;;;;;;6143329;23;20411;-91
2021/09/29 20:50:21;;;;;;;2.60;1.30;;;13.40;99.90;;;;;;6141692;23;20474;-92
2021/09/29 20:52:53;;;;;;;5.03;1.10;;;13.30;99.90;;;;;;6141715;23;20420;-90
2021/09/29 20:55:29;;;;;;;2.63;1.23;;;13.30;99.90;;;;;;6140311;23;20404;-92
2021/09/29 20:58:19;;;;;;;;;;;;;;;;;;;;;
2021/09/29 21:00:51;;;;;;;2.37;1.00;;;13.20;99.90;;;;;;6137590;23;20465;-91
2021/09/29 21:03:25;;;;;;;1.53;0.80;;;13.20;99.90;;;;;;6130742;23;20466;-91
2021/09/29 21:05:59;;;;;;;1.23;1.10;;;13.20;99.90;;;;;;6132379;23;20722;-91
2021/09/29 21:08:45;;;;;;;1.47;1.03;;;13.20;99.90;;;;;;6131207;23;21013;-93
2021/09/29 21:11:18;;;;;;;3.87;1.60;;;13.20;99.90;;;;;;6140693;23;20445;-91
2021/09/29 21:13:53;;;;;;;2.33;1.20;;;13.10;99.90;;;;;;6146310;23;20448;-91
2021/09/29 21:19:06;;;;;;;3.13;2.00;;;13.10;99.90;;;;;;6148187;23;20383;-92
2021/09/29 21:21:37;;;;;;;5.17;3.10;;;13.10;99.90;;;;;;6137631;23;20452;-91
2021/09/29 21:24:13;;;;;;;7.70;4.50;;;13.00;99.90;;;;;;6135649;23;20386;-92
2021/09/29 21:26:49;;;;;;;17.40;9.80;;;12.90;99.90;;;;;;6134257;23;20897;-92
2021/09/29 21:29:19;;;;;;;12.47;5.97;;;12.80;99.90;;;;;;6133502;23;20380;-91
2021/09/29 21:31:49;;;;;;;8.93;4.77;;;12.80;99.90;;;;;;6133060;23;20420;-91
2021/09/29 21:34:20;;;;;;;6.70;1.77;;;12.80;99.90;;;;;;6133486;23;20467;-91
2021/09/29 21:36:50;;;;;;;2.30;1.73;;;12.80;99.90;;;;;;6133517;23;20416;-91
2021/09/29 21:39:43;;;;;;;9.23;3.80;;;12.80;99.90;;;;;;6132838;23;20430;-91
2021/09/29 21:42:18;;;;;;;5.20;3.13;;;12.70;99.90;;;;;;6140458;23;20491;-92
2021/09/29 22:18:45;;;;;;;3.20;1.50;;;12.90;99.90;;;;;;6100064;23;20949;-92
2021/09/29 22:33:05;;;;;;;7.60;1.63;;;12.90;99.90;;;;;;6130327;23;20379;-92
2021/09/29 23:06:21;;;;;;;2.50;1.60;;;12.60;99.90;;;;;;6083601;23;20903;-92
2021/09/29 23:08:53;;;;;;;2.60;0.90;;;12.50;99.90;;;;;;6128842;23;20415;-92
2021/09/29 23:11:27;;;;;;;1.67;1.37;;;12.50;99.90;;;;;;6130438;23;20932;-91
2021/09/29 23:14:03;;;;;;;3.33;1.40;;;12.40;99.90;;;;;;6129785;23;20447;-92
2021/09/29 23:22:28;;;;;;;2.60;0.90;;;12.40;99.90;;;;;;6128017;23;20417;-92
2021/09/29 23:33:13;;;;;;;2.20;1.40;;;12.00;99.90;;;;;;6133862;23;20379;-91